Terminal Aerodrome Forecast
Issued by NWS Topeka, KS

Home | Current Version | Previous Version | Text Only | Print | Product List | Glossary Off
Versions: 1 2 3 4 5 6 7 8 9 10 11 12 13 14 15 16 17 18 19

000
FTUS43 KTOP 182326
TAFTOP
TAF
KTOP 182326Z 1900/1924 18008KT P6SM BKN250
     FM190300 20006KT P6SM BKN250 WS010/23045KT
     FM191400 20008KT P6SM BKN250
     FM191700 20011G18KT P6SM BKN250=

USA.gov is the U.S. government's official web portal to all federal, state and local government web resources and services.